Time;durP1;ratioP1;P1;durP2;ratioP2;P2;SDS_P1;SDS_P2;PMS_P1;PMS_P2;Temp;Humidity;BMP_temperature;BMP_pressure;BME280_temperature;BME280_humidity;BME280_pressure;Samples;Min_cycle;Max_cycle;Signal;HPM_P1;HPM_P2
2022/06/27 00:00:24;;;;;;;12.95;6.28;;;16.20;99.90;;;;;;5051027;28;19917;-68
2022/06/27 00:02:49;;;;;;;;;;;16.20;99.90;;;;;;5055397;28;20438;-68
2022/06/27 00:05:15;;;;;;;6.43;4.80;;;16.20;99.90;;;;;;5061990;28;20015;-68
2022/06/27 00:07:41;;;;;;;7.15;4.85;;;16.10;99.90;;;;;;5054869;28;20032;-68
2022/06/27 00:10:06;;;;;;;;;;;16.10;99.90;;;;;;5054939;28;20545;-68
2022/06/27 00:12:32;;;;;;;7.18;4.32;;;16.10;99.90;;;;;;5048213;28;19916;-68
2022/06/27 00:14:58;;;;;;;;;;;16.10;99.90;;;;;;5046338;28;20404;-68
2022/06/27 00:17:24;;;;;;;11.02;5.40;;;16.20;99.90;;;;;;5050183;28;19966;-68
2022/06/27 00:19:49;;;;;;;;;;;16.10;99.90;;;;;;5044415;28;20049;-68
2022/06/27 00:22:15;;;;;;;9.20;5.03;;;16.20;99.90;;;;;;5033694;28;20398;-68
2022/06/27 00:24:41;;;;;;;;;;;16.20;99.90;;;;;;5047114;28;20037;-68
2022/06/27 00:27:06;;;;;;;10.20;5.43;;;16.20;99.90;;;;;;5056788;28;20446;-67
2022/06/27 00:29:32;;;;;;;;;;;16.20;99.90;;;;;;5050015;28;20148;-67
2022/06/27 00:31:57;;;;;;;11.00;7.60;;;16.10;99.90;;;;;;5042684;28;19925;-69
2022/06/27 00:34:23;;;;;;;;;;;16.10;99.90;;;;;;5044027;28;20044;-68
2022/06/27 00:36:49;;;;;;;10.63;6.97;;;16.00;99.90;;;;;;5056946;28;19991;-68
2022/06/27 00:39:14;;;;;;;9.93;6.65;;;16.00;99.90;;;;;;5051492;28;20041;-67
2022/06/27 00:41:40;;;;;;;;;;;16.00;99.90;;;;;;5036639;28;20037;-68
2022/06/27 00:44:06;;;;;;;10.90;7.05;;;16.00;99.90;;;;;;5039240;28;19916;-69
2022/06/27 00:46:31;;;;;;;;;;;16.10;99.90;;;;;;5045578;28;20633;-68
2022/06/27 00:48:57;;;;;;;8.15;5.38;;;16.10;99.90;;;;;;5035576;28;20675;-68
2022/06/27 00:51:25;;;;;;;;;;;16.10;99.90;;;;;;5054542;28;20428;-68
2022/06/27 00:53:55;;;;;;;8.55;5.45;;;16.10;99.90;;;;;;5054468;28;19929;-68
2022/06/27 00:56:21;;;;;;;12.77;5.85;;;16.10;99.90;;;;;;5037097;28;20044;-68
2022/06/27 00:58:47;;;;;;;9.38;5.97;;;16.10;99.90;;;;;;5034418;28;20566;-67
2022/06/27 01:01:12;;;;;;;;;;;16.20;99.90;;;;;;5034291;28;20049;-67
2022/06/27 01:03:38;;;;;;;10.98;5.25;;;16.20;99.90;;;;;;5029345;28;19971;-67
2022/06/27 01:06:04;;;;;;;;;;;16.30;99.90;;;;;;5033726;28;20045;-68
2022/06/27 01:08:30;;;;;;;5.18;4.07;;;16.30;99.90;;;;;;5029062;28;19921;-68
2022/06/27 01:10:56;;;;;;;7.70;4.95;;;16.30;99.90;;;;;;5028694;28;20508;-67
2022/06/27 01:13:21;;;;;;;;;;;16.30;99.90;;;;;;5034395;28;20183;-68
2022/06/27 01:15:47;;;;;;;5.57;2.97;;;16.30;99.90;;;;;;5050376;28;19920;-67
2022/06/27 01:18:13;;;;;;;;;;;16.30;99.90;;;;;;5038424;28;20046;-68
2022/06/27 01:20:46;;;;;;;4.55;2.55;;;16.30;99.90;;;;;;5045711;28;19924;-68
2022/06/27 01:23:12;;;;;;;3.90;2.40;;;16.20;99.90;;;;;;5055662;28;20041;-68
2022/06/27 01:25:38;;;;;;;2.28;1.75;;;16.20;99.90;;;;;;5054309;28;20087;-67
2022/06/27 01:28:06;;;;;;;4.57;1.80;;;16.20;99.90;;;;;;5056368;28;20045;-69
2022/06/27 01:30:31;;;;;;;5.13;1.98;;;16.20;99.90;;;;;;5045281;28;20045;-69
2022/06/27 01:32:57;;;;;;;;;;;16.30;99.90;;;;;;5036010;28;20068;-69
2022/06/27 01:35:23;;;;;;;3.78;1.63;;;16.20;99.90;;;;;;5039104;28;19993;-68
2022/06/27 01:37:49;;;;;;;3.90;1.73;;;16.20;99.90;;;;;;5056115;28;20074;-67
2022/06/27 01:40:14;;;;;;;;;;;16.20;99.90;;;;;;5053160;28;20044;-68
2022/06/27 01:42:42;;;;;;;5.57;1.67;;;16.10;99.90;;;;;;5055012;28;19917;-68
2022/06/27 01:45:08;;;;;;;6.47;1.50;;;16.20;99.90;;;;;;5048804;28;20183;-68
2022/06/27 01:47:34;;;;;;;5.13;2.03;;;16.20;99.90;;;;;;5032831;28;20048;-68
2022/06/27 01:50:00;;;;;;;;;;;16.20;99.90;;;;;;5028924;28;20467;-68
2022/06/27 01:52:28;;;;;;;1.45;1.10;;;16.30;99.90;;;;;;5047709;28;19926;-68
2022/06/27 01:54:55;;;;;;;2.38;1.30;;;16.30;99.90;;;;;;5047830;28;20056;-67
2022/06/27 01:57:22;;;;;;;3.03;1.35;;;16.30;99.90;;;;;;5046902;28;20037;-68
2022/06/27 01:59:50;;;;;;;3.45;1.40;;;16.20;99.90;;;;;;5047439;28;20127;-68
2022/06/27 02:02:17;;;;;;;2.30;1.30;;;16.20;99.90;;;;;;5027366;28;20045;-68
2022/06/27 02:04:43;;;;;;;2.90;1.48;;;16.20;99.90;;;;;;5036985;28;20041;-68
2022/06/27 02:07:09;;;;;;;5.80;1.75;;;16.20;99.90;;;;;;5031305;28;20042;-67
2022/06/27 02:09:34;;;;;;;;;;;16.10;99.90;;;;;;5028314;28;20041;-67
2022/06/27 02:12:18;;;;;;;3.88;1.35;;;16.20;99.90;;;;;;5027634;28;20367;-67
2022/06/27 02:14:47;;;;;;;7.60;1.50;;;16.10;99.90;;;;;;5028938;28;20042;-68
2022/06/27 02:17:12;;;;;;;2.00;1.38;;;16.10;99.90;;;;;;5029882;28;20166;-68
2022/06/27 02:19:38;;;;;;;;;;;16.20;99.90;;;;;;5027756;28;20413;-68
2022/06/27 02:22:04;;;;;;;2.92;1.50;;;16.20;99.90;;;;;;5039611;28;19917;-68
2022/06/27 02:24:29;;;;;;;3.17;1.35;;;16.20;99.90;;;;;;5036948;28;20043;-67
2022/06/27 02:26:55;;;;;;;;;;;16.20;99.90;;;;;;5033735;28;20084;-68
2022/06/27 02:29:20;;;;;;;4.10;1.50;;;16.20;99.90;;;;;;5026079;28;19921;-68
2022/06/27 02:31:49;;;;;;;;;;;16.20;99.90;;;;;;5027160;28;20088;-68
2022/06/27 02:34:16;;;;;;;4.68;1.65;;;16.30;99.90;;;;;;5026639;28;19924;-67
2022/06/27 02:36:43;;;;;;;3.13;1.63;;;16.30;99.90;;;;;;5027618;28;20410;-68
2022/06/27 02:39:11;;;;;;;3.00;1.40;;;16.30;99.90;;;;;;5026897;28;20049;-68
2022/06/27 02:41:42;;;;;;;6.03;1.75;;;16.30;99.90;;;;;;5033586;28;20123;-68
2022/06/27 02:44:13;;;;;;;2.22;1.45;;;16.30;99.90;;;;;;5046194;28;20124;-67
2022/06/27 02:46:39;;;;;;;2.70;1.85;;;16.30;99.90;;;;;;5031517;28;20053;-67
2022/06/27 02:49:05;;;;;;;2.15;1.63;;;16.30;99.90;;;;;;5046492;28;20128;-68
2022/06/27 02:51:41;;;;;;;4.00;2.75;;;16.20;99.90;;;;;;5042002;28;20042;-68
2022/06/27 02:54:16;;;;;;;3.30;1.33;;;16.20;99.90;;;;;;5026893;28;20049;-67
2022/06/27 02:57:09;;;;;;;3.75;1.90;;;16.30;99.90;;;;;;5030749;28;20095;-68
2022/06/27 02:59:38;;;;;;;5.00;1.85;;;16.30;99.90;;;;;;5040608;28;20049;-68
2022/06/27 03:02:08;;;;;;;3.60;2.15;;;16.30;99.90;;;;;;5037733;28;20052;-68
2022/06/27 03:04:33;;;;;;;4.00;2.05;;;16.30;99.90;;;;;;5029728;28;20116;-68
2022/06/27 03:06:59;;;;;;;;;;;16.30;99.90;;;;;;5033119;28;20558;-69
2022/06/27 03:09:24;;;;;;;2.08;1.88;;;16.30;99.90;;;;;;5044453;28;19976;-68
2022/06/27 03:11:50;;;;;;;4.10;2.20;;;16.20;99.90;;;;;;5041089;28;20432;-68
2022/06/27 03:14:16;;;;;;;;;;;16.30;99.90;;;;;;5027241;28;20045;-68
2022/06/27 03:16:42;;;;;;;4.47;2.13;;;16.30;99.90;;;;;;5041515;28;19916;-68
2022/06/27 03:19:07;;;;;;;3.20;1.80;;;16.30;99.90;;;;;;5037756;28;20072;-68
2022/06/27 03:21:33;;;;;;;;;;;16.30;99.90;;;;;;5041224;28;20076;-69
2022/06/27 03:24:00;;;;;;;4.05;2.17;;;16.30;99.90;;;;;;5026262;28;19917;-68
2022/06/27 03:26:26;;;;;;;3.38;2.25;;;16.30;99.90;;;;;;5026562;28;20072;-68
2022/06/27 03:28:51;;;;;;;;;;;16.30;99.90;;;;;;5026644;28;20041;-68
2022/06/27 03:31:17;;;;;;;2.67;1.75;;;16.30;99.90;;;;;;5025944;28;20020;-69
2022/06/27 03:33:43;;;;;;;3.90;2.17;;;16.30;99.90;;;;;;5025775;28;20067;-67
2022/06/27 03:36:09;;;;;;;3.92;2.42;;;16.30;99.90;;;;;;5026542;28;20080;-68
2022/06/27 03:38:35;;;;;;;3.13;2.40;;;16.30;99.90;;;;;;5041814;28;20041;-69
2022/06/27 03:41:01;;;;;;;;;;;16.40;99.90;;;;;;5046759;28;20041;-68
2022/06/27 03:43:27;;;;;;;2.33;1.83;;;16.40;99.90;;;;;;5033120;28;20391;-68
2022/06/27 03:45:53;;;;;;;3.83;2.40;;;16.40;99.90;;;;;;5025931;28;20485;-69
2022/06/27 03:51:03;;;;;;;4.28;2.78;;;16.40;99.90;;;;;;5042024;28;20135;-68
2022/06/27 03:53:29;;;;;;;;;;;16.40;99.90;;;;;;5030832;28;20141;-69
2022/06/27 03:55:54;;;;;;;3.30;2.20;;;16.40;99.90;;;;;;5043889;28;19924;-68
2022/06/27 03:58:20;;;;;;;3.13;2.60;;;16.40;99.90;;;;;;5042226;28;20524;-69
2022/06/27 04:00:46;;;;;;;;;;;16.40;99.90;;;;;;5045832;28;20489;-68
2022/06/27 04:03:11;;;;;;;3.75;2.50;;;16.40;99.90;;;;;;5037620;28;20050;-68
2022/06/27 04:05:37;;;;;;;;;;;16.40;99.90;;;;;;5046601;28;20139;-68
2022/06/27 04:08:03;;;;;;;3.40;2.83;;;16.40;99.90;;;;;;5041996;28;19929;-63
2022/06/27 04:10:28;;;;;;;;;;;16.40;99.90;;;;;;5035295;28;20052;-64
2022/06/27 04:12:54;;;;;;;5.35;2.40;;;16.40;99.90;;;;;;5042604;28;19917;-64
2022/06/27 04:15:20;;;;;;;;;;;16.40;99.90;;;;;;5039448;28;20041;-64
2022/06/27 04:17:45;;;;;;;4.20;2.25;;;16.40;99.90;;;;;;5044983;28;19917;-70
2022/06/27 04:20:11;;;;;;;;;;;16.40;99.90;;;;;;5038592;28;20033;-70
2022/06/27 04:22:37;;;;;;;3.50;2.53;;;16.40;99.90;;;;;;5031229;28;19925;-68
2022/06/27 04:25:03;;;;;;;;;;;16.40;99.90;;;;;;5047627;28;20049;-67
2022/06/27 04:27:28;;;;;;;8.75;2.83;;;16.40;99.90;;;;;;5039158;28;19921;-68
2022/06/27 04:29:54;;;;;;;;;;;16.40;99.90;;;;;;5044263;28;20044;-67
2022/06/27 04:32:21;;;;;;;;;;;16.50;99.90;;;;;;5052811;28;20284;-68
2022/06/27 04:34:47;;;;;;;;;;;16.40;99.90;;;;;;5043111;28;20018;-69
2022/06/27 04:37:13;;;;;;;;;;;16.50;99.90;;;;;;5040187;28;19923;-67
2022/06/27 04:39:39;;;;;;;;;;;16.50;99.90;;;;;;5030150;28;19921;-69
2022/06/27 04:42:06;;;;;;;;;;;16.50;99.90;;;;;;5042002;28;20342;-69
2022/06/27 04:44:33;;;;;;;;;;;16.60;99.90;;;;;;5030018;28;19928;-69
2022/06/27 04:46:58;;;;;;;;;;;16.60;99.90;;;;;;5039737;28;19975;-70
2022/06/27 04:49:25;;;;;;;;;;;16.70;99.90;;;;;;5037307;28;19956;-69
2022/06/27 04:51:51;;;;;;;;;;;16.70;99.90;;;;;;5034029;28;20365;-69
2022/06/27 04:54:18;;;;;;;;;;;16.70;99.90;;;;;;5037198;28;20008;-69
2022/06/27 04:56:44;;;;;;;;;;;16.80;99.90;;;;;;5042411;28;19927;-69
2022/06/27 04:59:11;;;;;;;;;;;16.80;99.90;;;;;;5046712;28;20357;-69
2022/06/27 05:01:37;;;;;;;;;;;16.80;99.90;;;;;;5039039;28;20328;-69
2022/06/27 05:04:03;;;;;;;;;;;16.90;99.90;;;;;;5037759;28;19925;-69
2022/06/27 05:06:29;;;;;;;;;;;16.90;99.90;;;;;;5034013;28;19921;-69
2022/06/27 05:08:55;;;;;;;;;;;16.90;99.90;;;;;;5035892;28;19963;-69
2022/06/27 05:11:21;;;;;;;;;;;17.00;99.90;;;;;;5036570;28;20618;-69
2022/06/27 05:13:46;;;;;;;;;;;16.90;99.90;;;;;;5035473;28;19979;-69
2022/06/27 05:16:12;;;;;;;;;;;17.00;99.90;;;;;;5036606;28;20388;-69
2022/06/27 05:18:37;;;;;;;;;;;17.00;99.90;;;;;;5037842;28;19921;-69
2022/06/27 05:21:03;;;;;;;;;;;17.00;99.90;;;;;;5038637;28;20003;-69
2022/06/27 05:23:29;;;;;;;;;;;16.90;99.90;;;;;;5037881;28;20530;-69
2022/06/27 05:25:54;;;;;;;;;;;17.00;99.90;;;;;;5033906;28;20012;-69
2022/06/27 05:28:20;;;;;;;;;;;17.00;99.90;;;;;;5042911;28;19971;-69
2022/06/27 05:30:47;;;;;;;;;;;17.00;99.90;;;;;;5041474;28;19928;-69
2022/06/27 05:33:12;;;;;;;;;;;17.10;99.90;;;;;;5047936;28;20387;-69
2022/06/27 05:35:39;;;;;;;;;;;17.20;99.90;;;;;;5036678;28;19921;-69
2022/06/27 05:38:05;;;;;;;;;;;17.30;99.90;;;;;;5037279;28;19925;-69
2022/06/27 05:40:30;;;;;;;;;;;17.50;99.90;;;;;;5034835;28;20656;-69
2022/06/27 05:42:57;;;;;;;;;;;17.50;99.90;;;;;;5037251;28;19927;-69
2022/06/27 05:45:23;;;;;;;;;;;17.60;99.90;;;;;;5037364;28;20303;-69
2022/06/27 05:47:49;;;;;;;;;;;17.70;99.90;;;;;;5041157;28;19925;-69
2022/06/27 05:50:14;;;;;;;;;;;17.80;99.90;;;;;;5036504;28;19966;-69
2022/06/27 05:52:40;;;;;;;;;;;17.70;99.90;;;;;;5037692;28;19947;-69
2022/06/27 05:55:07;;;;;;;;;;;17.60;99.90;;;;;;5036320;28;19917;-69
2022/06/27 05:57:33;;;;;;;;;;;17.60;99.90;;;;;;5035034;28;19936;-69
2022/06/27 05:59:58;;;;;;;;;;;17.60;99.90;;;;;;5035440;28;20031;-69
2022/06/27 06:02:25;;;;;;;;;;;17.70;99.90;;;;;;5037547;28;19923;-69
2022/06/27 06:04:53;;;;;;;;;;;17.80;99.90;;;;;;5036986;28;19917;-69
2022/06/27 06:07:22;;;;;;;;;;;17.80;99.90;;;;;;5037825;28;19925;-69
2022/06/27 06:09:49;;;;;;;;;;;17.90;99.90;;;;;;5037326;28;20026;-69
2022/06/27 06:12:16;;;;;;;;;;;17.80;99.90;;;;;;5035552;28;20234;-69
2022/06/27 06:14:42;;;;;;;;;;;17.80;99.90;;;;;;5037885;28;19921;-69
2022/06/27 06:17:07;;;;;;;;;;;17.90;99.90;;;;;;5032275;28;19939;-69
2022/06/27 06:19:33;;;;;;;;;;;17.90;99.90;;;;;;5033957;28;20395;-69
2022/06/27 06:21:59;;;;;;;;;;;18.20;99.90;;;;;;5031609;28;20388;-69
2022/06/27 06:24:25;;;;;;;;;;;18.20;99.90;;;;;;5039217;28;19916;-69
2022/06/27 06:26:55;;;;;;;;;;;18.20;99.90;;;;;;5034621;28;19917;-69
2022/06/27 06:29:22;;;;;;;;;;;18.40;99.90;;;;;;5035361;28;19924;-69
2022/06/27 06:31:48;;;;;;;;;;;18.40;99.90;;;;;;5035947;28;19963;-69
2022/06/27 06:34:15;;;;;;;;;;;18.40;99.90;;;;;;5027873;28;19924;-69
2022/06/27 06:36:42;;;;;;;;;;;18.50;99.90;;;;;;5027999;28;19971;-70
2022/06/27 06:39:08;;;;;;;;;;;18.50;99.90;;;;;;5027967;28;19924;-69
2022/06/27 06:41:35;;;;;;;;;;;18.50;99.90;;;;;;5027765;28;19917;-69
2022/06/27 06:44:02;;;;;;;;;;;18.40;99.90;;;;;;5027392;28;20459;-69
2022/06/27 06:46:28;;;;;;;;;;;18.30;99.90;;;;;;5036309;28;19983;-69
2022/06/27 06:49:02;;;;;;;;;;;18.30;99.90;;;;;;5032813;28;19921;-69
2022/06/27 06:51:34;;;;;;;;;;;18.30;99.90;;;;;;5033635;28;19916;-69
2022/06/27 06:54:00;;;;;;;;;;;18.20;99.90;;;;;;5040658;28;19921;-70
2022/06/27 06:56:26;;;;;;;;;;;18.20;99.90;;;;;;5032634;28;20407;-69
2022/06/27 06:58:51;;;;;;;;;;;18.20;99.90;;;;;;5044657;28;19920;-69
2022/06/27 07:01:18;;;;;;;;;;;18.30;99.90;;;;;;5036075;28;20003;-69
2022/06/27 07:03:43;;;;;;;;;;;18.40;99.90;;;;;;5027297;28;19966;-70
2022/06/27 07:06:09;;;;;;;;;;;18.50;99.90;;;;;;5027456;28;19920;-69
2022/06/27 07:08:37;;;;;;;;;;;18.50;99.90;;;;;;5038168;28;20431;-69
2022/06/27 07:11:03;;;;;;;;;;;18.60;99.90;;;;;;5037333;28;19936;-70
2022/06/27 07:13:29;;;;;;;;;;;18.60;99.90;;;;;;5027341;28;20372;-69
2022/06/27 07:15:55;;;;;;;;;;;18.60;99.90;;;;;;5034916;28;19924;-69
2022/06/27 07:18:21;;;;;;;;;;;18.50;99.90;;;;;;5041656;28;19952;-69
2022/06/27 07:20:47;;;;;;;;;;;18.50;99.90;;;;;;5033996;28;20341;-69
2022/06/27 07:23:13;;;;;;;;;;;18.50;99.90;;;;;;5027221;28;19917;-69
2022/06/27 07:25:39;;;;;;;;;;;18.40;99.90;;;;;;5026834;28;19921;-69
2022/06/27 07:28:06;;;;;;;;;;;18.40;99.90;;;;;;5028982;28;19927;-69
2022/06/27 07:30:31;;;;;;;;;;;18.40;99.90;;;;;;5030879;28;19920;-70
2022/06/27 07:32:56;;;;;;;;;;;18.30;99.90;;;;;;5030578;28;19928;-69
2022/06/27 07:35:22;;;;;;;;;;;18.30;99.90;;;;;;5031015;28;20591;-69
2022/06/27 07:37:48;;;;;;;;;;;18.40;99.90;;;;;;5047998;28;19916;-69
2022/06/27 07:40:17;;;;;;;;;;;18.40;99.90;;;;;;5050605;28;19921;-69
2022/06/27 07:42:43;;;;;;;;;;;18.40;99.90;;;;;;5035639;28;19917;-69
2022/06/27 07:45:10;;;;;;;;;;;18.40;99.90;;;;;;5032765;28;20431;-69
2022/06/27 07:47:36;;;;;;;;;;;18.40;99.90;;;;;;5045469;28;19970;-69
2022/06/27 07:50:02;;;;;;;;;;;18.30;99.90;;;;;;5051047;28;19930;-69
2022/06/27 07:52:28;;;;;;;;;;;18.20;99.90;;;;;;5037825;28;19928;-69
2022/06/27 07:54:54;;;;;;;;;;;18.20;99.90;;;;;;5031255;28;19917;-69
2022/06/27 07:57:20;;;;;;;;;;;18.20;99.90;;;;;;5041621;28;20423;-69
2022/06/27 07:59:45;;;;;;;;;;;18.30;99.90;;;;;;5051035;28;19970;-69
2022/06/27 08:02:10;;;;;;;;;;;18.40;99.90;;;;;;5040619;28;19953;-69
2022/06/27 08:04:37;;;;;;;;;;;18.40;99.90;;;;;;5039177;28;19916;-69
2022/06/27 08:07:06;;;;;;;;;;;18.30;99.90;;;;;;5043174;28;19971;-69
2022/06/27 08:09:32;;;;;;;;;;;18.30;99.90;;;;;;5030623;28;19925;-69
2022/06/27 08:11:59;;;;;;;;;;;18.70;99.90;;;;;;5030695;28;20611;-69
2022/06/27 08:14:25;;;;;;;;;;;19.00;99.90;;;;;;5030195;28;20031;-69
2022/06/27 08:16:52;;;;;;;;;;;19.10;99.90;;;;;;5043366;28;19951;-69
2022/06/27 08:19:18;;;;;;;;;;;19.10;99.90;;;;;;5040663;28;19943;-69
2022/06/27 08:21:44;;;;;;;;;;;19.10;99.90;;;;;;5037632;28;20369;-69
2022/06/27 08:24:16;;;;;;;;;;;19.10;99.90;;;;;;5041151;28;20742;-69
2022/06/27 08:26:44;;;;;;;;;;;19.10;99.90;;;;;;5048698;28;19920;-69
2022/06/27 08:29:10;;;;;;;;;;;19.00;99.90;;;;;;5040107;28;19924;-69
2022/06/27 08:31:37;;;;;;;;;;;19.00;99.90;;;;;;5030135;28;19928;-69
2022/06/27 08:34:03;;;;;;;;;;;19.20;99.90;;;;;;5028965;28;19971;-69
2022/06/27 08:36:33;;;;;;;;;;;19.50;99.90;;;;;;5028882;28;19925;-69
2022/06/27 08:38:59;;;;;;;;;;;20.80;99.90;;;;;;5048005;28;20484;-69
2022/06/27 08:41:25;;;;;;;;;;;21.60;99.90;;;;;;5050626;28;20011;-69
2022/06/27 08:43:55;;;;;;;;;;;21.90;99.90;;;;;;5031565;28;19921;-69
2022/06/27 08:46:22;;;;;;;;;;;22.70;99.90;;;;;;5036110;28;20320;-70
2022/06/27 08:48:49;;;;;;;;;;;22.80;99.90;;;;;;5040565;28;19921;-69
2022/06/27 08:51:14;;;;;;;;;;;22.40;99.90;;;;;;5049106;28;19935;-69
2022/06/27 08:53:41;;;;;;;;;;;22.10;99.90;;;;;;5034221;28;19993;-70
2022/06/27 08:56:09;;;;;;;;;;;21.70;99.90;;;;;;5029612;28;19916;-69
2022/06/27 08:58:34;;;;;;;;;;;21.50;99.90;;;;;;5042296;28;20272;-69
2022/06/27 09:01:00;;;;;;;;;;;21.20;99.90;;;;;;5043339;28;19917;-70
2022/06/27 09:03:26;;;;;;;;;;;20.90;99.90;;;;;;5044122;28;19917;-69
2022/06/27 09:05:59;;;;;;;;;;;20.70;99.90;;;;;;5045122;28;19921;-65
2022/06/27 09:08:33;;;;;;;;;;;20.70;99.90;;;;;;5039532;28;19932;-69
2022/06/27 09:11:00;;;;;;;;;;;20.70;99.90;;;;;;5047523;28;20279;-68
2022/06/27 09:13:26;;;;;;;;;;;20.80;99.90;;;;;;5042116;28;20379;-68
2022/06/27 09:15:59;;;;;;;;;;;20.90;99.90;;;;;;5038745;28;19917;-69
2022/06/27 09:18:26;;;;;;;;;;;21.00;99.90;;;;;;5034301;28;19975;-69
2022/06/27 09:21:01;;;;;;;;;;;21.20;99.90;;;;;;5028768;28;19917;-70
2022/06/27 09:23:28;;;;;;;;;;;21.30;99.90;;;;;;5039703;28;19920;-68
2022/06/27 09:25:58;;;;;;;;;;;21.40;99.90;;;;;;5031943;28;20019;-68
2022/06/27 09:28:42;;;;;;;;;;;21.50;99.90;;;;;;5037882;28;19943;-69
2022/06/27 09:31:30;;;;;;;;;;;21.50;99.90;;;;;;5046783;28;19924;-69
2022/06/27 09:33:58;;;;;;;;;;;21.60;99.90;;;;;;5029180;28;19971;-69
2022/06/27 09:36:26;;;;;;;;;;;21.40;99.90;;;;;;5029644;28;20400;-68
2022/06/27 09:38:52;;;;;;;;;;;21.30;99.90;;;;;;5029085;28;19920;-68
2022/06/27 09:41:19;;;;;;;;;;;21.20;99.90;;;;;;5028710;28;19943;-69
2022/06/27 09:43:47;;;;;;;;;;;21.10;99.90;;;;;;5038811;28;19916;-68
2022/06/27 09:46:15;;;;;;;;;;;21.00;99.90;;;;;;5038480;28;19984;-69
2022/06/27 09:48:43;;;;;;;;;;;20.90;99.90;;;;;;5037517;28;19932;-68
2022/06/27 09:51:10;;;;;;;;;;;20.90;99.90;;;;;;5028072;28;20365;-68
2022/06/27 09:53:36;;;;;;;;;;;20.90;99.90;;;;;;5033781;28;20008;-68
2022/06/27 09:56:05;;;;;;;;;;;21.00;99.90;;;;;;5039520;28;20007;-68
2022/06/27 09:58:33;;;;;;;;;;;21.10;99.90;;;;;;5036419;28;19917;-68
2022/06/27 10:00:58;;;;;;;;;;;21.00;99.90;;;;;;5038974;28;19936;-68
2022/06/27 10:03:24;;;;;;;;;;;20.90;99.90;;;;;;5040863;28;19948;-68
2022/06/27 10:05:50;;;;;;;;;;;21.00;99.90;;;;;;5035766;28;20333;-68
2022/06/27 10:08:16;;;;;;;;;;;20.90;99.90;;;;;;5043878;28;19924;-69
2022/06/27 10:11:00;;;;;;;;;;;20.90;99.90;;;;;;5034396;28;20396;-68
2022/06/27 10:13:26;;;;;;;;;;;20.90;99.90;;;;;;5038470;28;19921;-69
2022/06/27 10:15:52;;;;;;;;;;;20.80;99.90;;;;;;5029693;28;19921;-68
2022/06/27 10:18:17;;;;;;;;;;;20.70;99.90;;;;;;5027866;28;20381;-68
2022/06/27 10:20:47;;;;;;;;;;;20.60;99.90;;;;;;5047432;28;19916;-68
2022/06/27 10:23:13;;;;;;;;;;;20.60;99.90;;;;;;5025415;28;20474;-68
2022/06/27 10:25:41;;;;;;;;;;;20.70;99.90;;;;;;5045367;28;19916;-68
2022/06/27 10:30:36;;;;;;;;;;;20.90;99.90;;;;;;5030261;28;20410;-68
2022/06/27 10:33:21;;;;;;;;;;;20.90;99.90;;;;;;5045916;28;19923;-68
2022/06/27 10:35:59;;;;;;;;;;;21.00;99.90;;;;;;5026336;28;20335;-68
2022/06/27 10:38:39;;;;;;;;;;;21.00;99.90;;;;;;5036294;28;20342;-68
2022/06/27 10:41:05;;;;;;;;;;;21.10;99.90;;;;;;5039090;28;20439;-68
2022/06/27 10:43:50;;;;;;;;;;;21.10;99.90;;;;;;5042038;28;19917;-67
2022/06/27 10:46:15;;;;;;;;;;;21.10;99.90;;;;;;5037804;28;20423;-68
2022/06/27 10:48:54;;;;;;;;;;;21.20;99.90;;;;;;5048267;28;19925;-68
2022/06/27 10:51:21;;;;;;;;;;;21.20;99.90;;;;;;5035085;28;19929;-69
2022/06/27 10:53:47;;;;;;;;;;;21.30;99.90;;;;;;5035502;28;19928;-68
2022/06/27 10:56:28;;;;;;;;;;;21.30;99.90;;;;;;5033818;28;19987;-68
2022/06/27 10:58:54;;;;;;;;;;;21.30;99.90;;;;;;5031811;28;19931;-70
2022/06/27 11:01:21;;;;;;;;;;;21.20;99.90;;;;;;5036020;28;19921;-68
2022/06/27 11:03:47;;;;;;;;;;;21.10;99.90;;;;;;5028995;28;20353;-67
2022/06/27 11:06:15;;;;;;;;;;;21.00;99.90;;;;;;5026125;28;19916;-69
2022/06/27 11:08:42;;;;;;;;;;;20.90;99.90;;;;;;5040936;28;19979;-69
2022/06/27 11:11:08;;;;;;;;;;;20.90;99.90;;;;;;5045255;28;19928;-70
2022/06/27 11:13:39;;;;;;;;;;;20.80;99.90;;;;;;5037406;28;19923;-69
2022/06/27 11:16:06;;;;;;;;;;;20.80;99.90;;;;;;5036789;28;19917;-71
2022/06/27 11:18:47;;;;;;;;;;;20.70;99.90;;;;;;5042343;28;19917;-67
2022/06/27 11:21:13;;;;;;;;;;;20.60;99.90;;;;;;5034443;28;19929;-69
2022/06/27 11:23:51;;;;;;;;;;;20.50;99.90;;;;;;5029628;28;20412;-69
2022/06/27 11:26:17;;;;;;;;;;;20.70;99.90;;;;;;5032855;28;19916;-67
2022/06/27 11:34:12;;;;;;;;;;;20.70;99.90;;;;;;5026986;28;20538;-70
2022/06/27 11:36:39;;;;;;;;;;;20.60;99.90;;;;;;5043674;28;19917;-71
2022/06/27 11:39:05;;;;;;;;;;;20.60;99.90;;;;;;5047337;28;20694;-71
2022/06/27 11:41:30;;;;;;;;;;;20.60;99.90;;;;;;5031832;28;19917;-71
2022/06/27 11:44:07;;;;;;;;;;;20.50;99.90;;;;;;5026706;28;19991;-71
2022/06/27 11:46:35;;;;;;;;;;;20.40;99.90;;;;;;5043303;28;19927;-71
2022/06/27 11:49:02;;;;;;;;;;;20.40;99.90;;;;;;5042597;28;19948;-71
2022/06/27 11:51:30;;;;;;;;;;;20.20;99.90;;;;;;5028022;28;19917;-70
2022/06/27 11:53:57;;;;;;;;;;;20.10;99.90;;;;;;5026371;28;19939;-71
2022/06/27 11:56:23;;;;;;;;;;;20.10;99.90;;;;;;5038147;28;19967;-71
2022/06/27 11:58:52;;;;;;;;;;;20.10;99.90;;;;;;5038366;28;19916;-71
2022/06/27 12:01:19;;;;;;;;;;;20.10;99.90;;;;;;5035758;28;20044;-70
2022/06/27 12:04:03;;;;;;;;;;;20.00;99.90;;;;;;5026362;28;20436;-70
2022/06/27 12:06:29;;;;;;;;;;;20.00;99.90;;;;;;5024945;28;19948;-71
2022/06/27 12:08:59;;;;;;;;;;;20.10;99.90;;;;;;5026934;28;19979;-70
2022/06/27 12:11:28;;;;;;;;;;;20.10;99.90;;;;;;5029600;28;19925;-71
2022/06/27 12:13:58;;;;;;;;;;;20.20;99.90;;;;;;5038965;28;19917;-71
2022/06/27 12:16:23;;;;;;;;;;;20.30;99.90;;;;;;5046109;28;19923;-68
2022/06/27 12:18:52;;;;;;;;;;;20.30;99.90;;;;;;5038729;28;20343;-69
2022/06/27 12:21:22;;;;;;;;;;;20.30;99.90;;;;;;5036996;28;20003;-69
2022/06/27 12:23:48;;;;;;;;;;;20.20;99.90;;;;;;5050058;28;19916;-69
2022/06/27 12:26:13;;;;;;;;;;;20.10;99.90;;;;;;5043646;28;19956;-69
2022/06/27 12:28:42;;;;;;;;;;;20.00;99.90;;;;;;5030030;28;20333;-68
2022/06/27 12:31:07;;;;;;;;;;;19.80;99.90;;;;;;5033667;28;20631;-69
2022/06/27 12:33:33;;;;;;;;;;;19.90;99.90;;;;;;5049531;28;19970;-68
2022/06/27 12:35:59;;;;;;;;;;;19.80;99.90;;;;;;5046964;28;20003;-69
2022/06/27 12:38:24;;;;;;;;;;;19.80;99.90;;;;;;5029488;28;19917;-69
2022/06/27 12:40:50;;;;;;;;;;;19.70;99.90;;;;;;5030258;28;19956;-68
2022/06/27 12:43:15;;;;;;;;;;;19.70;99.90;;;;;;5049435;28;19981;-68
2022/06/27 12:45:41;;;;;;;;;;;19.70;99.90;;;;;;5049301;28;20288;-68
2022/06/27 12:48:08;;;;;;;;;;;19.80;99.90;;;;;;5036922;28;19925;-68
2022/06/27 12:50:35;;;;;;;;;;;19.90;99.90;;;;;;5029277;28;20399;-68
2022/06/27 12:53:00;;;;;;;;;;;19.90;99.90;;;;;;5041590;28;19921;-68
2022/06/27 12:55:26;;;;;;;;;;;20.00;99.90;;;;;;5059010;28;19920;-68
2022/06/27 12:57:52;;;;;;;;;;;20.00;99.90;;;;;;5044022;28;19924;-68
2022/06/27 13:00:17;;;;;;;;;;;20.00;99.90;;;;;;5032850;28;19921;-68
2022/06/27 13:02:43;;;;;;;;;;;20.00;99.90;;;;;;5039947;28;20318;-68
2022/06/27 13:05:10;;;;;;;;;;;19.90;99.90;;;;;;5033283;28;19917;-68
2022/06/27 13:07:35;;;;;;;;;;;19.90;99.90;;;;;;5028765;28;19985;-69
2022/06/27 13:10:01;;;;;;;;;;;19.80;99.90;;;;;;5029452;28;19964;-69
2022/06/27 13:12:26;;;;;;;;;;;19.80;99.90;;;;;;5035787;28;20411;-68
2022/06/27 13:14:52;;;;;;;;;;;19.80;99.90;;;;;;5049057;28;19921;-67
2022/06/27 13:17:17;;;;;;;;;;;19.80;99.90;;;;;;5038074;28;19924;-67
2022/06/27 13:19:43;;;;;;;;;;;19.80;99.90;;;;;;5041435;28;19947;-68
2022/06/27 13:22:08;;;;;;;;;;;19.80;99.90;;;;;;5045078;28;20443;-68
2022/06/27 13:24:34;;;;;;;;;;;19.80;99.90;;;;;;5036790;28;19925;-68
2022/06/27 13:26:59;;;;;;;;;;;19.80;99.90;;;;;;5038418;28;19947;-71
2022/06/27 13:29:28;;;;;;;;;;;19.80;99.90;;;;;;5026602;28;20364;-70
2022/06/27 13:31:54;;;;;;;;;;;19.70;99.90;;;;;;5030862;28;19955;-71
2022/06/27 13:34:20;;;;;;;;;;;19.60;99.90;;;;;;5047938;28;19960;-71
2022/06/27 13:36:47;;;;;;;;;;;19.60;99.90;;;;;;5047352;28;19917;-71
2022/06/27 13:39:13;;;;;;;;;;;19.60;99.90;;;;;;5028675;28;19921;-71
2022/06/27 13:41:39;;;;;;;;;;;19.60;99.90;;;;;;5028431;28;20303;-69
2022/06/27 13:44:04;;;;;;;;;;;19.60;99.90;;;;;;5043255;28;19931;-68
2022/06/27 13:46:30;;;;;;;;;;;19.60;99.90;;;;;;5036551;28;19920;-68
2022/06/27 13:48:55;;;;;;;;;;;19.60;99.90;;;;;;5035775;28;20392;-68
2022/06/27 13:51:20;;;;;;;;;;;19.60;99.90;;;;;;5035056;28;19921;-68
2022/06/27 13:53:46;;;;;;;;;;;19.60;99.90;;;;;;5027912;28;19924;-68
2022/06/27 13:56:12;;;;;;;;;;;19.50;99.90;;;;;;5035640;28;20381;-68
2022/06/27 13:58:38;;;;;;;;;;;19.60;99.90;;;;;;5035882;28;19916;-69
2022/06/27 14:01:03;;;;;;;;;;;19.60;99.90;;;;;;5041624;28;19916;-68
2022/06/27 14:03:29;;;;;;;;;;;19.70;99.90;;;;;;5036624;28;19970;-68